»·PEaware :: CLX241 KPHX-KSAN

CLX241 :: KPHX-KSAN

FLIGHT INFORMATION

Flight Status: Arrived
Operator:
Cargolux Airlines International
More flights by this operator :: More flights under this callsign
Pilot: Drew L. (13237)
Aircraft: Unknown
(B748)
More flights by this aircraft type
Origin: KPHX Phoenix Sky Harbor Intl
United States
Destination: KSAN San Diego Intl-Lindbergh
United States
More flights between these airports :: More routes between these airports
Route: +JUDTH6 MOHAK J2 HOGGZ LUCKI1
File this flight plan on PilotEdge
Remarks: PBN / A1B1C1D1L1O1S2 DOF / 171126 REG / N488SB EET / KZLA0018 OPR / CLX RMK / TCAS SIMBRIEF
Altitude:
(Current/Filed)
32,000ft
Speed:
(Current/Filed)
504kts
Departed: 26-Nov-17 10:45 AM
Arrived: 26-Nov-17 11:32 AM
Distance/Time
Traveled:
264nm/0:46
Distance/Time
To Go:
Arrived

Flight Plot

Page will automatically refresh every two minutes.

Flight plan parsing failed; only flown route is shown


Map Options




Map Legend


Flown Route
Filed Route
Departure Airport
Arrival Airport
Navaid (VOR, NDB)
Fix

Horizontal Profiles

Position Reports

Time Latitude Longitude Heading Altitude Ground
Speed
26-Nov-17 10:15 33.425275 -112.017867 90 1149ft 0kts
26-Nov-17 10:16 33.425275 -112.017867 90 1149ft 0kts
26-Nov-17 10:17 33.425275 -112.017867 90 1149ft 0kts
26-Nov-17 10:18 33.425275 -112.017867 90 1149ft 0kts
26-Nov-17 10:19 33.425275 -112.017867 90 1149ft 0kts
26-Nov-17 10:20 33.425275 -112.017867 90 1149ft 0kts
26-Nov-17 10:21 33.425275 -112.017867 90 1149ft 0kts
26-Nov-17 10:22 33.425275 -112.017867 90 1149ft 0kts
26-Nov-17 10:23 33.425275 -112.017867 90 1149ft 0kts
26-Nov-17 10:24 33.425275 -112.017867 90 1149ft 0kts
26-Nov-17 10:25 33.425275 -112.017867 90 1149ft 0kts
26-Nov-17 10:26 33.425275 -112.017867 90 1149ft 0kts
26-Nov-17 10:27 33.425275 -112.017867 90 1149ft 0kts
26-Nov-17 10:28 33.425275 -112.017867 90 1149ft 0kts
26-Nov-17 10:29 33.425275 -112.017867 90 1149ft 0kts
26-Nov-17 10:30 33.425275 -112.017867 90 1149ft 0kts
26-Nov-17 10:31 33.425275 -112.017867 90 1149ft 0kts
26-Nov-17 10:32 33.425387 -112.017525 41 1149ft 4kts
26-Nov-17 10:33 33.426800 -112.017411 0 1149ft 0kts
26-Nov-17 10:34 33.426800 -112.017411 0 1149ft 0kts
26-Nov-17 10:35 33.427751 -112.018606 269 1149ft 11kts
26-Nov-17 10:36 33.427747 -112.022095 269 1149ft 9kts
26-Nov-17 10:37 33.427750 -112.024853 270 1149ft 7kts
26-Nov-17 10:38 33.427817 -112.026743 303 1149ft 0kts
26-Nov-17 10:39 33.427817 -112.026743 303 1149ft 0kts
26-Nov-17 10:40 33.427817 -112.026743 303 1149ft 0kts
26-Nov-17 10:41 33.427817 -112.026743 303 1149ft 0kts
26-Nov-17 10:42 33.427817 -112.026743 303 1149ft 0kts
26-Nov-17 10:43 33.427817 -112.026743 303 1149ft 0kts
26-Nov-17 10:44 33.427817 -112.026743 303 1149ft 0kts
26-Nov-17 10:45 33.427817 -112.026743 303 1149ft 0kts
26-Nov-17 10:46 33.428349 -112.026973 357 1149ft 7kts
26-Nov-17 10:47 33.429973 -112.026963 0 1149ft 0kts
26-Nov-17 10:48 33.429973 -112.026963 0 1149ft 0kts
26-Nov-17 10:49 33.430534 -112.026956 0 1149ft 11kts
26-Nov-17 10:50 33.431035 -111.991482 89 2002ft 171kts
26-Nov-17 10:51 33.432836 -111.937701 87 4316ft 227kts
26-Nov-17 10:52 33.414376 -111.858937 142 7995ft 278kts
26-Nov-17 10:53 33.349107 -111.879621 248 12078ft 287kts
26-Nov-17 10:54 33.356519 -111.974750 271 14643ft 325kts
26-Nov-17 10:55 33.319175 -112.085852 240 17052ft 394kts
26-Nov-17 10:56 33.254659 -112.195210 235 20503ft 418kts
26-Nov-17 10:57 33.184527 -112.307017 235 23750ft 433kts
26-Nov-17 10:58 33.111629 -112.424491 235 26695ft 448kts
26-Nov-17 10:59 33.036176 -112.546272 235 29383ft 463kts
26-Nov-17 11:00 32.968764 -112.661139 240 32168ft 426kts
26-Nov-17 11:01 32.936991 -112.798218 256 32154ft 441kts
26-Nov-17 11:02 32.919488 -112.946648 257 32127ft 458kts
26-Nov-17 11:03 32.900372 -113.095646 256 32124ft 457kts
26-Nov-17 11:04 32.878971 -113.242342 255 32135ft 457kts
26-Nov-17 11:05 32.857687 -113.390648 256 32133ft 457kts
26-Nov-17 11:06 32.836931 -113.539987 256 32132ft 458kts
26-Nov-17 11:07 32.816527 -113.686923 256 32027ft 456kts
26-Nov-17 11:08 32.795362 -113.835122 255 32002ft 457kts
26-Nov-17 11:09 32.774780 -113.984135 259 31999ft 459kts
26-Nov-17 11:10 32.775204 -114.136957 268 32000ft 466kts
26-Nov-17 11:11 32.783571 -114.290305 268 31998ft 466kts
26-Nov-17 11:12 32.797389 -114.435719 278 31998ft 475kts
26-Nov-17 11:13 32.840165 -114.585408 284 31996ft 481kts
26-Nov-17 11:14 32.877108 -114.724072 273 32112ft 472kts
26-Nov-17 11:15 32.879618 -114.878211 261 32111ft 463kts
26-Nov-17 11:16 32.872003 -115.031005 262 31505ft 467kts
26-Nov-17 11:17 32.867990 -115.185152 264 29745ft 470kts
26-Nov-17 11:18 32.864154 -115.341669 262 27894ft 486kts
26-Nov-17 11:19 32.843243 -115.496823 254 26081ft 476kts
26-Nov-17 11:20 32.816716 -115.651252 255 24794ft 482kts
26-Nov-17 11:21 32.793908 -115.793553 255 23602ft 486kts
26-Nov-17 11:22 32.774650 -115.953989 261 20850ft 498kts
26-Nov-17 11:23 32.764648 -116.114651 262 17838ft 470kts
26-Nov-17 11:24 32.754040 -116.260577 261 15220ft 419kts
26-Nov-17 11:25 32.743540 -116.392388 262 12659ft 385kts
26-Nov-17 11:26 32.733933 -116.513560 262 10639ft 361kts
26-Nov-17 11:27 32.723744 -116.619301 262 9959ft 304kts
26-Nov-17 11:28 32.716256 -116.704340 263 7664ft 266kts
26-Nov-17 11:29 32.709702 -116.788938 262 5606ft 263kts
26-Nov-17 11:30 32.692269 -116.867869 250 3915ft 205kts
26-Nov-17 11:31 32.676751 -116.932374 269 3955ft 204kts
26-Nov-17 11:32 32.686694 -116.997269 286 3321ft 190kts
26-Nov-17 11:33 32.701074 -117.051425 290 2224ft 155kts
26-Nov-17 11:34 32.711472 -117.100629 289 1579ft 146kts
26-Nov-17 11:35 32.722339 -117.144074 288 900ft 146kts
26-Nov-17 11:36 32.733228 -117.188289 287 32ft 102kts
26-Nov-17 11:37 32.734635 -117.198240 128 32ft 5kts
26-Nov-17 11:38 32.734577 -117.198079 106 32ft 0kts
26-Nov-17 11:39 32.734563 -117.198022 106 32ft 0kts
26-Nov-17 11:40 32.734448 -117.197546 106 32ft 0kts
26-Nov-17 11:41 32.734448 -117.197546 106 32ft 0kts
26-Nov-17 11:42 32.733210 -117.192382 105 32ft 29kts
26-Nov-17 11:43 32.731726 -117.186368 105 32ft 17kts
26-Nov-17 11:44 32.733991 -117.185604 355 32ft 10kts
26-Nov-17 11:45 32.734317 -117.185497 20 32ft 0kts

Navigation Log

Ident Type
Flight plan parsing failed, navigation log unavailable